createdAt,value
2023-04-15T00:01:01.895Z,3.72
2023-04-15T00:03:29.862Z,3.28
2023-04-15T00:05:58.311Z,2.20
2023-04-15T00:08:25.759Z,2.80
2023-04-15T00:10:53.133Z,0.93
2023-04-15T00:13:20.292Z,1.60
2023-04-15T00:15:48.066Z,1.77
2023-04-15T00:18:14.971Z,2.25
2023-04-15T00:20:41.815Z,1.45
2023-04-15T00:23:08.697Z,1.45
2023-04-15T00:25:35.541Z,2.15
2023-04-15T00:28:02.885Z,1.95
2023-04-15T00:30:29.894Z,2.67
2023-04-15T00:32:56.774Z,3.22
2023-04-15T00:35:24.069Z,2.25
2023-04-15T00:37:51.548Z,3.40
2023-04-15T00:40:19.761Z,4.90
2023-04-15T00:42:46.586Z,3.35
2023-04-15T00:45:14.162Z,4.05
2023-04-15T00:47:44.720Z,3.22
2023-04-15T00:50:12.572Z,3.80
2023-04-15T00:52:40.596Z,4.47
2023-04-15T00:55:10.340Z,4.78
2023-04-15T00:57:37.571Z,4.93
2023-04-15T01:00:05.775Z,5.90
2023-04-15T01:02:33.561Z,3.90
2023-04-15T01:05:02.328Z,4.28
2023-04-15T01:07:29.772Z,3.30
2023-04-15T01:09:56.839Z,4.70
2023-04-15T01:12:23.745Z,4.18
2023-04-15T01:14:50.831Z,4.30
2023-04-15T01:17:17.806Z,4.63
2023-04-15T01:19:44.669Z,4.55
2023-04-15T01:22:11.490Z,3.50
2023-04-15T01:24:38.662Z,4.05
2023-04-15T01:27:05.711Z,4.13
2023-04-15T01:29:33.314Z,3.42
2023-04-15T01:32:00.245Z,4.00
2023-04-15T01:34:27.542Z,3.63
2023-04-15T01:36:54.638Z,5.22
2023-04-15T01:39:22.683Z,3.92
2023-04-15T01:41:49.559Z,2.90
2023-04-15T01:44:16.902Z,5.25
2023-04-15T01:46:43.788Z,5.57
2023-04-15T01:49:10.741Z,3.63
2023-04-15T01:51:37.917Z,2.63
2023-04-15T01:54:06.546Z,3.13
2023-04-15T01:56:33.525Z,4.13
2023-04-15T01:59:00.783Z,3.42
2023-04-15T02:01:28.014Z,2.88
2023-04-15T02:03:54.939Z,4.18
2023-04-15T02:06:21.769Z,3.03
2023-04-15T02:08:48.618Z,2.72
2023-04-15T02:11:15.497Z,2.15
2023-04-15T02:13:42.383Z,2.63
2023-04-15T02:16:18.959Z,1.90
2023-04-15T02:18:46.898Z,1.60
2023-04-15T02:21:14.017Z,2.78
2023-04-15T02:23:41.118Z,2.08
2023-04-15T02:26:08.206Z,2.05
2023-04-15T02:28:35.795Z,2.60
2023-04-15T02:31:09.598Z,2.05
2023-04-15T02:33:37.915Z,1.75
2023-04-15T02:36:05.179Z,1.75
2023-04-15T02:38:32.086Z,1.65
2023-04-15T02:40:58.891Z,1.70
2023-04-15T02:43:25.742Z,2.30
2023-04-15T02:45:53.401Z,1.95
2023-04-15T02:48:21.183Z,1.98
2023-04-15T02:50:48.134Z,1.52
2023-04-15T02:53:17.465Z,1.13
2023-04-15T02:55:44.340Z,1.63
2023-04-15T02:58:11.170Z,1.20
2023-04-15T03:00:38.022Z,0.93
2023-04-15T03:03:06.138Z,1.90
2023-04-15T03:05:33.137Z,1.05
2023-04-15T03:08:01.403Z,1.67
2023-04-15T03:10:28.539Z,2.13
2023-04-15T03:12:55.633Z,1.42
2023-04-15T03:15:23.938Z,1.63
2023-04-15T03:17:53.001Z,1.50
2023-04-15T03:20:20.353Z,1.50
2023-04-15T03:22:48.447Z,2.92
2023-04-15T03:25:15.751Z,1.83
2023-04-15T03:27:43.223Z,1.05
2023-04-15T03:30:12.393Z,1.88
2023-04-15T03:32:40.407Z,2.00
2023-04-15T03:35:09.659Z,1.48
2023-04-15T03:37:36.832Z,1.52
2023-04-15T03:40:03.704Z,1.38
2023-04-15T03:42:30.607Z,1.25
2023-04-15T03:44:57.444Z,1.30
2023-04-15T03:47:24.337Z,1.30
2023-04-15T03:49:51.086Z,2.97
2023-04-15T03:52:17.937Z,2.00
2023-04-15T03:54:44.713Z,3.25
2023-04-15T03:57:11.612Z,2.30
2023-04-15T03:59:38.500Z,1.92
2023-04-15T04:02:05.849Z,1.85
2023-04-15T04:04:32.815Z,3.17
2023-04-15T04:06:59.665Z,2.10
2023-04-15T04:09:26.452Z,1.92
2023-04-15T04:11:53.253Z,2.08
2023-04-15T04:14:20.194Z,2.58
2023-04-15T04:16:47.279Z,2.55
2023-04-15T04:19:14.711Z,4.05
2023-04-15T04:21:41.540Z,2.80
2023-04-15T04:24:08.341Z,3.78
2023-04-15T04:26:35.097Z,3.03
2023-04-15T04:29:02.245Z,2.90
2023-04-15T04:31:29.193Z,2.15
2023-04-15T04:33:56.032Z,2.60
2023-04-15T04:36:22.837Z,3.40
2023-04-15T04:38:49.613Z,2.60
2023-04-15T04:41:16.426Z,4.07
2023-04-15T04:43:43.210Z,3.30
2023-04-15T04:46:10.497Z,2.30
2023-04-15T04:48:37.335Z,2.55
2023-04-15T04:51:04.274Z,2.97
2023-04-15T04:53:31.153Z,2.13
2023-04-15T04:55:58.417Z,2.72
2023-04-15T04:58:25.246Z,2.40
2023-04-15T05:00:52.138Z,3.17
2023-04-15T05:03:19.440Z,2.75
2023-04-15T05:05:46.559Z,3.03
2023-04-15T05:08:13.363Z,2.30
2023-04-15T05:10:40.210Z,2.97
2023-04-15T05:13:07.110Z,2.60
2023-04-15T05:15:35.141Z,3.15
2023-04-15T05:18:02.202Z,2.97
2023-04-15T05:20:29.283Z,3.20
2023-04-15T05:22:56.119Z,3.05
2023-04-15T05:25:23.105Z,2.78
2023-04-15T05:27:49.994Z,2.40
2023-04-15T05:30:16.958Z,3.15
2023-04-15T05:32:43.876Z,2.72
2023-04-15T05:35:10.667Z,3.47
2023-04-15T05:37:37.461Z,2.78
2023-04-15T05:40:04.612Z,2.88
2023-04-15T05:42:31.446Z,4.53
2023-04-15T05:44:58.364Z,3.45
2023-04-15T05:47:25.293Z,2.78
2023-04-15T05:49:52.210Z,3.40
2023-04-15T05:52:18.954Z,3.45
2023-04-15T05:54:45.733Z,3.78
2023-04-15T05:57:12.677Z,3.35
2023-04-15T05:59:42.120Z,4.47
2023-04-15T06:02:10.505Z,2.50
2023-04-15T06:04:37.760Z,3.15
2023-04-15T06:07:04.668Z,3.22
2023-04-15T06:09:31.530Z,2.72
2023-04-15T06:11:59.201Z,3.08
2023-04-15T06:14:26.023Z,3.05
2023-04-15T06:16:52.807Z,3.42
2023-04-15T06:19:20.394Z,2.63
2023-04-15T06:21:47.149Z,2.70
2023-04-15T06:24:13.961Z,3.22
2023-04-15T06:26:40.986Z,2.42
2023-04-15T06:29:07.757Z,2.67
2023-04-15T06:31:34.661Z,1.80
2023-04-15T06:34:01.652Z,2.72
2023-04-15T06:36:28.510Z,2.10
2023-04-15T06:38:56.596Z,2.60
2023-04-15T06:41:23.503Z,2.45
2023-04-15T06:43:50.302Z,2.60
2023-04-15T06:46:17.257Z,1.80
2023-04-15T06:48:44.472Z,2.63
2023-04-15T06:51:11.722Z,2.55
2023-04-15T06:53:41.124Z,2.10
2023-04-15T06:56:11.358Z,3.20
2023-04-15T06:58:38.183Z,2.40
2023-04-15T07:01:05.425Z,2.42
2023-04-15T07:03:33.028Z,2.25
2023-04-15T07:05:59.892Z,2.70
2023-04-15T07:08:26.783Z,2.05
2023-04-15T07:10:54.171Z,3.03
2023-04-15T07:13:21.009Z,2.10
2023-04-15T07:15:47.798Z,2.50
2023-04-15T07:18:14.538Z,2.00
2023-04-15T07:20:41.388Z,2.40
2023-04-15T07:23:08.334Z,2.00
2023-04-15T07:25:35.455Z,2.42
2023-04-15T07:28:02.563Z,2.40
2023-04-15T07:30:29.517Z,1.85
2023-04-15T07:32:56.366Z,2.70
2023-04-15T07:35:23.400Z,2.38
2023-04-15T07:37:50.547Z,2.17
2023-04-15T07:40:17.500Z,2.78
2023-04-15T07:42:44.381Z,3.42
2023-04-15T07:45:11.565Z,3.95
2023-04-15T07:47:38.335Z,3.42
2023-04-15T07:50:05.569Z,3.17
2023-04-15T07:52:35.222Z,2.72
2023-04-15T07:55:02.111Z,3.53
2023-04-15T07:57:28.957Z,3.97
2023-04-15T07:59:55.783Z,3.15
2023-04-15T08:02:22.977Z,3.50
2023-04-15T08:04:50.114Z,3.55
2023-04-15T08:07:17.064Z,4.20
2023-04-15T08:09:44.007Z,3.92
2023-04-15T08:12:13.375Z,4.95
2023-04-15T08:14:40.287Z,3.95
2023-04-15T08:17:07.295Z,3.63
2023-04-15T08:19:34.151Z,4.05
2023-04-15T08:22:01.458Z,4.30
2023-04-15T08:24:28.208Z,4.00
2023-04-15T08:26:54.997Z,4.25
2023-04-15T08:29:21.773Z,5.03
2023-04-15T08:31:48.861Z,4.65
2023-04-15T08:34:15.678Z,4.55
2023-04-15T08:36:42.986Z,4.18
2023-04-15T08:39:09.754Z,5.57
2023-04-15T08:42:05.677Z,4.20
2023-04-15T08:44:34.283Z,4.95
2023-04-15T08:47:02.641Z,4.40
2023-04-15T08:49:29.992Z,5.82
2023-04-15T08:51:58.972Z,4.60
2023-04-15T08:54:25.996Z,5.15
2023-04-15T08:56:53.023Z,4.95
2023-04-15T08:59:21.989Z,4.50
2023-04-15T09:01:51.011Z,4.15
2023-04-15T09:04:17.901Z,5.65
2023-04-15T09:06:44.791Z,5.75
2023-04-15T09:09:13.005Z,5.78
2023-04-15T09:11:40.451Z,4.50
2023-04-15T09:14:07.722Z,7.00
2023-04-15T09:17:02.086Z,6.05
2023-04-15T09:19:30.788Z,5.93
2023-04-15T09:21:59.440Z,5.70
2023-04-15T09:24:33.502Z,6.15
2023-04-15T09:27:02.415Z,5.75
2023-04-15T09:29:29.203Z,5.65
2023-04-15T09:31:56.225Z,7.00
2023-04-15T09:34:23.296Z,7.40
2023-04-15T09:36:54.983Z,5.22
2023-04-15T09:39:21.898Z,5.35
2023-04-15T09:42:05.408Z,9.10
2023-04-15T09:44:32.194Z,4.97
2023-04-15T09:46:59.003Z,4.40
2023-04-15T09:49:25.959Z,5.13
2023-04-15T09:52:05.117Z,5.25
2023-04-15T09:54:37.051Z,6.20
2023-04-15T09:57:10.301Z,5.88
2023-04-15T10:02:05.339Z,5.65
2023-04-15T10:04:33.488Z,4.57
2023-04-15T10:07:00.244Z,5.22
2023-04-15T10:09:27.461Z,4.90
2023-04-15T10:11:54.678Z,5.85
2023-04-15T10:14:21.468Z,4.50
2023-04-15T10:16:49.029Z,5.25
2023-04-15T10:19:16.628Z,4.40
2023-04-15T10:21:45.067Z,5.63
2023-04-15T10:24:12.067Z,4.53
2023-04-15T10:26:38.880Z,5.10
2023-04-15T10:29:05.729Z,4.40
2023-04-15T10:31:32.705Z,5.03
2023-04-15T10:34:04.033Z,5.35
2023-04-15T10:36:31.164Z,6.47
2023-04-15T10:38:57.931Z,5.30
2023-04-15T10:41:31.248Z,4.93
2023-04-15T10:44:02.691Z,6.80
2023-04-15T10:46:39.211Z,6.25
2023-04-15T10:49:13.622Z,5.57
2023-04-15T10:51:42.119Z,5.28
2023-04-15T10:54:16.566Z,4.63
2023-04-15T10:56:44.609Z,7.18
2023-04-15T10:59:11.449Z,5.35
2023-04-15T11:01:54.646Z,5.60
2023-04-15T11:04:57.512Z,4.20
2023-04-15T11:07:39.907Z,5.10
2023-04-15T11:10:20.820Z,4.85
2023-04-15T11:12:51.190Z,5.43
2023-04-15T11:15:30.462Z,5.25
2023-04-15T11:17:58.147Z,4.53
2023-04-15T11:20:25.117Z,4.65
2023-04-15T11:22:53.677Z,4.55
2023-04-15T11:25:40.438Z,5.32
2023-04-15T11:28:07.617Z,4.07
2023-04-15T11:30:36.909Z,3.22
2023-04-15T11:33:12.117Z,4.53
2023-04-15T11:35:41.469Z,4.05
2023-04-15T11:38:14.367Z,3.58
2023-04-15T11:40:42.470Z,4.35
2023-04-15T11:43:10.757Z,3.40
2023-04-15T11:45:52.922Z,3.28
2023-04-15T11:48:21.621Z,3.47
2023-04-15T11:50:53.923Z,4.65
2023-04-15T11:53:20.665Z,4.93
2023-04-15T11:55:48.937Z,3.80
2023-04-15T11:58:21.380Z,5.40
2023-04-15T12:00:48.167Z,4.63
2023-04-15T12:03:17.333Z,3.53
2023-04-15T12:06:12.765Z,4.82
2023-04-15T12:08:55.775Z,4.18
2023-04-15T12:11:39.010Z,3.85
2023-04-15T12:14:11.541Z,3.40
2023-04-15T12:16:52.548Z,4.15
2023-04-15T12:19:41.676Z,3.75
2023-04-15T12:22:15.858Z,3.47
2023-04-15T12:24:49.580Z,3.65
2023-04-15T12:27:17.385Z,4.13
2023-04-15T12:29:44.316Z,2.80
2023-04-15T12:32:20.842Z,3.97
2023-04-15T12:34:51.857Z,4.70
2023-04-15T12:37:18.753Z,4.20
2023-04-15T12:39:48.023Z,3.63
2023-04-15T12:42:15.704Z,4.38
2023-04-15T12:44:43.099Z,5.43
2023-04-15T12:47:10.907Z,3.72
2023-04-15T12:49:37.911Z,3.80
2023-04-15T12:52:04.886Z,3.75
2023-04-15T12:54:32.080Z,3.15
2023-04-15T12:56:59.180Z,2.58
2023-04-15T12:59:26.126Z,3.10
2023-04-15T13:01:53.562Z,4.38
2023-04-15T13:04:21.098Z,3.17
2023-04-15T13:06:48.031Z,3.58
2023-04-15T13:09:15.679Z,4.18
2023-04-15T13:11:42.625Z,4.72
2023-04-15T13:14:09.577Z,3.45
2023-04-15T13:16:36.620Z,5.30
2023-04-15T13:19:04.173Z,3.30
2023-04-15T13:21:33.302Z,4.30
2023-04-15T13:24:00.163Z,2.70
2023-04-15T13:26:27.017Z,4.90
2023-04-15T13:28:53.888Z,3.35
2023-04-15T13:31:21.022Z,3.72
2023-04-15T13:33:47.845Z,5.30
2023-04-15T13:36:14.679Z,3.10
2023-04-15T13:38:41.491Z,3.10
2023-04-15T13:41:08.242Z,4.93
2023-04-15T13:43:35.061Z,5.57
2023-04-15T13:46:01.922Z,4.53
2023-04-15T13:48:28.858Z,3.33
2023-04-15T13:50:55.618Z,4.75
2023-04-15T13:53:38.339Z,3.80
2023-04-15T13:56:06.903Z,3.20
2023-04-15T13:58:33.689Z,5.03
2023-04-15T14:01:01.529Z,3.92
2023-04-15T14:03:29.430Z,5.20
2023-04-15T14:05:56.999Z,5.80
2023-04-15T14:08:24.601Z,2.28
2023-04-15T14:10:51.404Z,4.18
2023-04-15T14:13:19.516Z,3.92
2023-04-15T14:15:46.647Z,3.03
2023-04-15T14:18:13.474Z,3.70
2023-04-15T14:20:40.520Z,3.47
2023-04-15T14:23:07.421Z,3.30
2023-04-15T14:25:34.420Z,4.35
2023-04-15T14:28:04.401Z,3.97
2023-04-15T14:30:31.270Z,2.88
2023-04-15T14:32:58.180Z,4.22
2023-04-15T14:35:26.676Z,4.10
2023-04-15T14:37:54.378Z,3.40
2023-04-15T14:40:21.454Z,3.63
2023-04-15T14:42:48.294Z,3.65
2023-04-15T14:45:15.200Z,2.75
2023-04-15T14:47:42.068Z,4.25
2023-04-15T14:50:09.624Z,4.20
2023-04-15T14:52:39.228Z,3.92
2023-04-15T14:55:10.416Z,4.72
2023-04-15T14:57:41.266Z,3.95
2023-04-15T15:00:09.919Z,5.55
2023-04-15T15:02:39.611Z,4.53
2023-04-15T15:05:07.374Z,5.75
2023-04-15T15:07:34.235Z,6.63
2023-04-15T15:10:01.030Z,3.70
2023-04-15T15:12:27.809Z,3.75
2023-04-15T15:14:55.643Z,2.83
2023-04-15T15:17:22.480Z,3.10
2023-04-15T15:19:49.373Z,2.80
2023-04-15T15:22:16.226Z,3.70
2023-04-15T15:24:43.122Z,3.58
2023-04-15T15:27:10.096Z,3.47
2023-04-15T15:29:37.878Z,2.97
2023-04-15T15:32:04.876Z,3.60
2023-04-15T15:34:31.676Z,3.55
2023-04-15T15:37:00.771Z,3.58
2023-04-15T15:39:27.980Z,3.03
2023-04-15T15:41:54.993Z,4.20
2023-04-15T15:44:21.794Z,2.97
2023-04-15T15:46:49.973Z,3.33
2023-04-15T15:49:16.852Z,3.22
2023-04-15T15:51:43.666Z,4.22
2023-04-15T15:54:10.448Z,3.42
2023-04-15T15:56:39.303Z,4.97
2023-04-15T15:59:06.254Z,6.13
2023-04-15T16:01:33.298Z,4.05
2023-04-15T16:04:00.823Z,5.22
2023-04-15T16:06:28.184Z,3.97
2023-04-15T16:08:55.039Z,2.88
2023-04-15T16:11:21.863Z,3.53
2023-04-15T16:13:48.645Z,3.70
2023-04-15T16:16:15.486Z,3.28
2023-04-15T16:18:42.294Z,4.10
2023-04-15T16:21:09.112Z,3.67
2023-04-15T16:23:36.392Z,4.38
2023-04-15T16:26:03.226Z,4.65
2023-04-15T16:28:30.022Z,5.57
2023-04-15T16:30:57.086Z,4.88
2023-04-15T16:33:23.962Z,3.00
2023-04-15T16:35:51.356Z,4.50
2023-04-15T16:38:18.157Z,5.05
2023-04-15T16:40:45.719Z,3.53
2023-04-15T16:43:12.452Z,4.03
2023-04-15T16:45:39.337Z,6.25
2023-04-15T16:48:06.419Z,4.53
2023-04-15T16:50:33.213Z,3.22
2023-04-15T16:53:00.039Z,7.53
2023-04-15T16:55:27.205Z,6.35
2023-04-15T16:58:02.280Z,5.88
2023-04-15T17:00:31.359Z,3.60
2023-04-15T17:02:58.947Z,4.15
2023-04-15T17:05:27.639Z,6.13
2023-04-15T17:07:54.862Z,3.90
2023-04-15T17:10:22.048Z,5.70
2023-04-15T17:12:51.868Z,6.82
2023-04-15T17:15:19.318Z,4.70
2023-04-15T17:17:46.107Z,4.25
2023-04-15T17:20:13.045Z,7.10
2023-04-15T17:22:39.933Z,4.88
2023-04-15T17:25:07.197Z,5.18
2023-04-15T17:27:33.970Z,4.95
2023-04-15T17:30:00.867Z,4.03
2023-04-15T17:32:34.354Z,4.45
2023-04-15T17:35:02.887Z,2.92
2023-04-15T17:37:29.777Z,5.45
2023-04-15T17:39:56.614Z,3.28
2023-04-15T17:42:23.519Z,5.95
2023-04-15T17:44:50.344Z,4.53
2023-04-15T17:47:17.180Z,4.53
2023-04-15T17:49:44.234Z,6.00
2023-04-15T17:52:11.338Z,3.90
2023-04-15T17:54:38.281Z,3.95
2023-04-15T17:57:05.081Z,5.78
2023-04-15T17:59:33.658Z,4.53
2023-04-15T18:02:00.539Z,4.57
2023-04-15T18:04:27.785Z,4.95
2023-04-15T18:06:54.686Z,4.15
2023-04-15T18:09:22.606Z,6.43
2023-04-15T18:11:49.437Z,4.53
2023-04-15T18:14:27.038Z,4.72
2023-04-15T18:16:57.868Z,4.38
2023-04-15T18:19:25.738Z,7.03
2023-04-15T18:21:52.594Z,5.35
2023-04-15T18:24:19.493Z,5.30
2023-04-15T18:26:48.742Z,5.15
2023-04-15T18:29:15.937Z,6.22
2023-04-15T18:31:42.803Z,5.43
2023-04-15T18:34:09.639Z,4.40
2023-04-15T18:36:36.435Z,5.38
2023-04-15T18:39:04.339Z,3.75
2023-04-15T18:41:31.365Z,7.00
2023-04-15T18:43:58.140Z,5.10
2023-04-15T18:46:24.998Z,4.53
2023-04-15T18:48:51.790Z,4.25
2023-04-15T18:51:18.543Z,4.28
2023-04-15T18:53:45.591Z,7.68
2023-04-15T18:56:12.381Z,6.18
2023-04-15T18:59:09.381Z,4.03
2023-04-15T19:01:26.478Z,5.50
2023-04-15T19:03:53.426Z,4.43
2023-04-15T19:06:20.553Z,5.65
2023-04-15T19:08:47.367Z,5.05
2023-04-15T19:11:14.186Z,5.53
2023-04-15T19:13:41.078Z,5.13
2023-04-15T19:16:07.957Z,4.72
2023-04-15T19:18:34.776Z,6.25
2023-04-15T19:21:01.574Z,9.13
2023-04-15T19:23:28.490Z,7.95
2023-04-15T19:25:55.466Z,10.02
2023-04-15T19:28:22.258Z,9.65
2023-04-15T19:30:49.165Z,10.20
2023-04-15T19:33:16.034Z,9.10
2023-04-15T19:35:43.015Z,6.50
2023-04-15T19:38:09.802Z,7.15
2023-04-15T19:40:36.610Z,9.32
2023-04-15T19:43:03.430Z,7.25
2023-04-15T19:45:31.363Z,8.25
2023-04-15T19:47:58.226Z,9.57
2023-04-15T19:50:26.444Z,10.55
2023-04-15T19:52:53.797Z,9.70
2023-04-15T19:55:20.893Z,13.05
2023-04-15T19:57:47.620Z,12.43
2023-04-15T20:00:14.695Z,12.02
2023-04-15T20:02:41.588Z,11.05
2023-04-15T20:05:09.961Z,12.32
2023-04-15T20:07:36.956Z,11.35
2023-04-15T20:10:09.615Z,12.30
2023-04-15T20:12:50.131Z,10.50
2023-04-15T20:15:19.617Z,8.50
2023-04-15T20:17:46.535Z,11.43
2023-04-15T20:20:13.509Z,11.57
2023-04-15T20:22:41.115Z,10.55
2023-04-15T20:25:08.300Z,10.45
2023-04-15T20:27:35.193Z,9.02
2023-04-15T20:30:03.372Z,16.20
2023-04-15T20:32:32.584Z,12.65
2023-04-15T20:34:59.401Z,13.52
2023-04-15T20:37:26.196Z,11.63
2023-04-15T20:39:53.052Z,13.15
2023-04-15T20:42:19.858Z,13.38
2023-04-15T20:44:46.803Z,11.93
2023-04-15T20:47:13.609Z,14.98
2023-04-15T20:49:40.645Z,12.10
2023-04-15T20:52:07.837Z,10.45
2023-04-15T20:54:34.971Z,9.90
2023-04-15T20:57:02.949Z,12.30
2023-04-15T20:59:30.084Z,12.85
2023-04-15T21:01:57.480Z,12.35
2023-04-15T21:04:24.534Z,10.90
2023-04-15T21:06:52.171Z,10.00
2023-04-15T21:09:19.141Z,12.25
2023-04-15T21:12:00.313Z,12.02
2023-04-15T21:14:28.679Z,9.85
2023-04-15T21:16:57.145Z,11.35
2023-04-15T21:19:23.926Z,9.15
2023-04-15T21:21:50.857Z,12.48
2023-04-15T21:24:17.600Z,9.35
2023-04-15T21:26:44.426Z,12.35
2023-04-15T21:29:13.382Z,9.13
2023-04-15T21:31:42.524Z,10.30
2023-04-15T21:34:09.615Z,10.32
2023-04-15T21:36:37.856Z,9.38
2023-04-15T21:39:05.304Z,9.63
2023-04-15T21:41:32.784Z,11.63
2023-04-15T21:43:59.775Z,11.65
2023-04-15T21:46:33.330Z,12.90
2023-04-15T21:49:02.695Z,14.38
2023-04-15T21:51:29.479Z,16.45
2023-04-15T21:53:56.521Z,12.65
2023-04-15T21:56:24.709Z,16.05
2023-04-15T21:58:54.693Z,14.85
2023-04-15T22:01:21.801Z,16.60
2023-04-15T22:03:48.884Z,16.25
2023-04-15T22:06:15.993Z,15.43
2023-04-15T22:08:54.787Z,15.45
2023-04-15T22:11:27.040Z,14.73
2023-04-15T22:13:54.747Z,14.43
2023-04-15T22:16:21.754Z,19.35
2023-04-15T22:18:48.806Z,12.77
2023-04-15T22:21:15.943Z,14.48
2023-04-15T22:23:45.762Z,13.40
2023-04-15T22:26:12.566Z,13.30
2023-04-15T22:28:39.476Z,13.77
2023-04-15T22:31:06.549Z,13.70
2023-04-15T22:33:33.901Z,16.77
2023-04-15T22:36:00.709Z,12.32
2023-04-15T22:38:27.553Z,12.85
2023-04-15T22:40:54.439Z,10.85
2023-04-15T22:43:21.211Z,11.57
2023-04-15T22:45:51.279Z,11.88
2023-04-15T22:48:18.700Z,14.38
2023-04-15T22:50:45.656Z,12.98
2023-04-15T22:53:12.615Z,11.52
2023-04-15T22:55:39.507Z,13.23
2023-04-15T22:58:06.471Z,14.15
2023-04-15T23:00:33.276Z,12.98
2023-04-15T23:03:00.413Z,12.63
2023-04-15T23:05:27.694Z,13.15
2023-04-15T23:07:54.662Z,17.75
2023-04-15T23:10:21.516Z,15.02
2023-04-15T23:12:48.395Z,14.80
2023-04-15T23:15:15.478Z,13.48
2023-04-15T23:17:42.812Z,14.48
2023-04-15T23:20:10.332Z,16.52
2023-04-15T23:22:37.567Z,14.63
2023-04-15T23:25:05.526Z,15.82
2023-04-15T23:27:32.419Z,14.48
2023-04-15T23:29:59.279Z,14.07
2023-04-15T23:32:27.261Z,14.70
2023-04-15T23:34:54.193Z,17.52
2023-04-15T23:37:21.073Z,14.88
2023-04-15T23:39:47.892Z,11.25
2023-04-15T23:42:14.723Z,12.68
2023-04-15T23:44:41.531Z,15.48
2023-04-15T23:47:08.426Z,13.38
2023-04-15T23:49:36.680Z,12.60
2023-04-15T23:52:03.481Z,18.02
2023-04-15T23:54:30.342Z,11.50
2023-04-15T23:56:57.251Z,14.38
2023-04-15T23:59:24.022Z,14.02
